Time;durP1;ratioP1;P1;durP2;ratioP2;P2;SDS_P1;SDS_P2;PMS_P1;PMS_P2;Temp;Humidity;BMP_temperature;BMP_pressure;BME280_temperature;BME280_humidity;BME280_pressure;Samples;Min_cycle;Max_cycle;Signal;HPM_P1;HPM_P2
2023/03/16 00:02:05;;;;;;;0.60;0.60;;;3.60;99.90;;;;;;5049971;28;20772;-62
2023/03/16 00:04:36;;;;;;;0.70;0.70;;;3.60;99.90;;;;;;5051602;28;20532;-62
2023/03/16 00:07:05;;;;;;;1.20;1.10;;;3.60;99.90;;;;;;5054692;28;20228;-61
2023/03/16 00:09:32;;;;;;;0.67;0.67;;;3.60;99.90;;;;;;5054603;28;20200;-61
2023/03/16 00:11:59;;;;;;;0.80;0.80;;;3.60;99.90;;;;;;5055094;28;20210;-61
2023/03/16 00:14:26;;;;;;;1.17;1.17;;;3.60;99.90;;;;;;5054048;28;20212;-61
2023/03/16 00:16:53;;;;;;;1.00;1.00;;;3.60;99.90;;;;;;5053816;28;20227;-60
2023/03/16 00:19:21;;;;;;;1.20;1.20;;;3.60;99.90;;;;;;5053804;28;20216;-62
2023/03/16 00:21:48;;;;;;;1.20;1.20;;;3.60;99.90;;;;;;5053297;28;20239;-62
2023/03/16 00:24:18;;;;;;;1.20;1.20;;;3.60;99.90;;;;;;5053007;28;20230;-61
2023/03/16 00:26:45;;;;;;;0.95;0.95;;;3.50;99.90;;;;;;5053499;28;20239;-61
2023/03/16 00:29:12;;;;;;;1.00;1.00;;;3.50;99.90;;;;;;5053353;28;20295;-62
2023/03/16 00:31:38;;;;;;;0.90;0.90;;;3.40;99.90;;;;;;5052990;28;20298;-61
2023/03/16 00:34:05;;;;;;;0.70;0.70;;;3.40;99.90;;;;;;5052289;28;20686;-62
2023/03/16 00:36:32;;;;;;;0.68;0.68;;;3.40;99.90;;;;;;5052783;28;20223;-61
2023/03/16 00:39:01;;;;;;;0.70;0.70;;;3.30;99.90;;;;;;5053111;28;20214;-61
2023/03/16 00:41:29;;;;;;;0.75;0.75;;;3.30;99.90;;;;;;5052519;28;20212;-62
2023/03/16 00:43:56;;;;;;;0.77;0.77;;;3.20;99.90;;;;;;5052402;28;20239;-61
2023/03/16 00:46:25;;;;;;;0.67;0.67;;;3.20;99.90;;;;;;5053207;28;20224;-61
2023/03/16 00:48:52;;;;;;;0.70;0.70;;;3.20;99.90;;;;;;5053013;28;20578;-61
2023/03/16 00:51:21;;;;;;;0.52;0.52;;;3.30;99.90;;;;;;5054595;28;20212;-60
2023/03/16 00:53:49;;;;;;;0.80;0.80;;;3.20;99.90;;;;;;5053634;28;20298;-60
2023/03/16 00:56:17;;;;;;;0.80;0.80;;;3.20;99.90;;;;;;5053173;28;20234;-61
2023/03/16 00:58:45;;;;;;;0.60;0.60;;;3.20;99.90;;;;;;5053439;28;20688;-62
2023/03/16 01:01:14;;;;;;;0.60;0.60;;;3.20;99.90;;;;;;5052898;28;20207;-61
2023/03/16 01:03:41;;;;;;;0.70;0.70;;;3.20;99.90;;;;;;5052660;28;20208;-61
2023/03/16 01:06:10;;;;;;;0.50;0.50;;;3.20;99.90;;;;;;5051949;28;20691;-60
2023/03/16 01:08:40;;;;;;;0.63;0.63;;;3.20;99.90;;;;;;5052787;28;20208;-60
2023/03/16 01:11:10;;;;;;;0.60;0.60;;;3.20;99.90;;;;;;5052644;28;20207;-61
2023/03/16 01:13:37;;;;;;;0.50;0.50;;;3.20;99.90;;;;;;5052664;28;20258;-61
2023/03/16 01:16:06;;;;;;;0.65;0.65;;;3.10;99.90;;;;;;5054725;28;20241;-60
2023/03/16 01:18:33;;;;;;;0.40;0.40;;;3.10;99.90;;;;;;5053570;28;20224;-62
2023/03/16 01:21:00;;;;;;;0.95;0.90;;;3.10;99.90;;;;;;5052851;28;20744;-61
2023/03/16 01:23:30;;;;;;;0.93;0.88;;;3.00;99.90;;;;;;5054497;28;20212;-62
2023/03/16 01:25:57;;;;;;;0.60;0.60;;;3.00;99.90;;;;;;5053563;28;20231;-61
2023/03/16 01:28:25;;;;;;;0.65;0.65;;;3.00;99.90;;;;;;5054111;28;20199;-61
2023/03/16 01:30:54;;;;;;;0.63;0.60;;;2.90;99.90;;;;;;5053553;28;20212;-61
2023/03/16 01:33:22;;;;;;;0.50;0.50;;;2.90;99.90;;;;;;5053248;28;20204;-61
2023/03/16 01:35:53;;;;;;;0.50;0.50;;;2.90;99.90;;;;;;5053256;28;20228;-62
2023/03/16 01:38:20;;;;;;;0.50;0.50;;;3.00;99.90;;;;;;5052942;28;20219;-60
2023/03/16 01:40:49;;;;;;;0.50;0.50;;;3.00;99.90;;;;;;5052059;28;20208;-61
2023/03/16 01:43:17;;;;;;;0.70;0.70;;;3.00;99.90;;;;;;5052007;28;20298;-61
2023/03/16 01:46:16;;;;;;;0.60;0.60;;;3.00;99.90;;;;;;5051133;28;20227;-61
2023/03/16 01:48:50;;;;;;;0.60;0.60;;;3.00;99.90;;;;;;5052218;28;20188;-61
2023/03/16 01:51:21;;;;;;;0.60;0.60;;;3.00;99.90;;;;;;5051953;28;20198;-61
2023/03/16 01:53:51;;;;;;;0.65;0.65;;;2.90;99.90;;;;;;5051603;28;20207;-60
2023/03/16 01:56:23;;;;;;;0.50;0.50;;;3.00;99.90;;;;;;5051428;28;20278;-61
2023/03/16 01:58:52;;;;;;;0.70;0.70;;;3.00;99.90;;;;;;5051508;28;20215;-62
2023/03/16 02:01:20;;;;;;;0.50;0.50;;;2.90;99.90;;;;;;5051280;28;20208;-61
2023/03/16 02:03:48;;;;;;;0.50;0.50;;;2.90;99.90;;;;;;5051120;28;20204;-62
2023/03/16 02:06:18;;;;;;;0.55;0.55;;;2.90;99.90;;;;;;5050995;28;20418;-62
2023/03/16 02:08:47;;;;;;;0.57;0.57;;;2.90;99.90;;;;;;5051255;28;20204;-62
2023/03/16 02:11:16;;;;;;;0.47;0.47;;;2.90;99.90;;;;;;5051158;28;20628;-61
2023/03/16 02:13:44;;;;;;;0.60;0.60;;;3.00;99.90;;;;;;5050778;28;20660;-61
2023/03/16 02:16:13;;;;;;;0.60;0.60;;;2.90;99.90;;;;;;5043106;28;20224;-61
2023/03/16 02:18:40;;;;;;;0.70;0.52;;;2.90;99.90;;;;;;5037624;28;20212;-61
2023/03/16 02:21:16;;;;;;;0.57;0.57;;;3.00;99.90;;;;;;5047178;28;20207;-60
2023/03/16 02:23:44;;;;;;;0.70;0.70;;;2.90;99.90;;;;;;5051255;28;20195;-62
2023/03/16 02:26:17;;;;;;;0.60;0.60;;;2.90;99.90;;;;;;5049033;28;20299;-60
2023/03/16 02:28:52;;;;;;;0.52;0.52;;;2.90;99.90;;;;;;5050768;28;20188;-62
2023/03/16 02:31:21;;;;;;;0.65;0.65;;;2.80;99.90;;;;;;5050717;28;20263;-61
2023/03/16 02:33:50;;;;;;;0.60;0.60;;;2.80;99.90;;;;;;5050377;28;20207;-61
2023/03/16 02:36:18;;;;;;;0.60;0.60;;;2.80;99.90;;;;;;5050956;28;20311;-62
2023/03/16 02:38:46;;;;;;;0.60;0.60;;;2.80;99.90;;;;;;5051234;28;20218;-60
2023/03/16 02:41:16;;;;;;;0.50;0.50;;;2.70;99.90;;;;;;5050971;28;20265;-62
2023/03/16 02:43:46;;;;;;;0.45;0.45;;;2.70;99.90;;;;;;5050682;28;20226;-61
2023/03/16 02:46:14;;;;;;;0.50;0.50;;;2.70;99.90;;;;;;5050223;28;20232;-61
2023/03/16 02:48:46;;;;;;;0.68;0.60;;;2.70;99.90;;;;;;5050884;28;20212;-61
2023/03/16 02:51:13;;;;;;;0.60;0.60;;;2.70;99.90;;;;;;5050426;28;20195;-61
2023/03/16 02:53:40;;;;;;;0.50;0.50;;;2.70;99.90;;;;;;5051177;28;20201;-61
2023/03/16 02:56:07;;;;;;;0.50;0.50;;;2.70;99.90;;;;;;5050654;28;20224;-61
2023/03/16 02:58:34;;;;;;;0.55;0.55;;;2.70;99.90;;;;;;5050984;28;20215;-60
2023/03/16 03:01:02;;;;;;;0.60;0.60;;;2.70;99.90;;;;;;5050409;28;21007;-60
2023/03/16 03:03:29;;;;;;;0.70;0.70;;;2.80;99.90;;;;;;5050782;28;20208;-61
2023/03/16 03:05:57;;;;;;;0.70;0.70;;;2.80;99.90;;;;;;5051119;28;20251;-61
2023/03/16 03:08:24;;;;;;;0.60;0.60;;;2.80;99.90;;;;;;5050383;28;20219;-61
2023/03/16 03:10:51;;;;;;;0.50;0.50;;;2.80;99.90;;;;;;5050435;28;20299;-61
2023/03/16 03:13:17;;;;;;;0.50;0.50;;;2.80;99.90;;;;;;5050431;28;20222;-61
2023/03/16 03:15:44;;;;;;;0.60;0.60;;;2.80;99.90;;;;;;5049741;28;20224;-61
2023/03/16 03:18:13;;;;;;;0.60;0.60;;;2.80;99.90;;;;;;5050547;28;20203;-62
2023/03/16 03:20:40;;;;;;;0.50;0.50;;;2.80;99.90;;;;;;5050303;28;20208;-61
2023/03/16 03:23:08;;;;;;;0.80;0.80;;;2.80;99.90;;;;;;5049889;28;20203;-60
2023/03/16 03:25:35;;;;;;;0.50;0.50;;;2.80;99.90;;;;;;5049860;28;20681;-61
2023/03/16 03:28:04;;;;;;;0.60;0.60;;;2.80;99.90;;;;;;5051632;28;20314;-62
2023/03/16 03:30:31;;;;;;;0.88;0.88;;;2.80;99.90;;;;;;5051633;28;20277;-61
2023/03/16 03:32:58;;;;;;;0.80;0.80;;;2.80;99.90;;;;;;5053094;28;20269;-61
2023/03/16 03:35:25;;;;;;;0.60;0.60;;;2.80;99.90;;;;;;5055447;28;20323;-60
2023/03/16 03:37:51;;;;;;;0.70;0.70;;;2.80;99.90;;;;;;5054214;28;20196;-61
2023/03/16 03:40:20;;;;;;;0.90;0.88;;;2.80;99.90;;;;;;5055648;28;20488;-60
2023/03/16 03:42:48;;;;;;;0.40;0.40;;;2.80;99.90;;;;;;5058830;28;20307;-61
2023/03/16 03:45:16;;;;;;;0.47;0.47;;;2.80;99.90;;;;;;5059994;28;20357;-62
2023/03/16 03:47:43;;;;;;;0.70;0.70;;;2.80;99.90;;;;;;5054050;28;20984;-62
2023/03/16 03:50:12;;;;;;;0.70;0.70;;;2.90;99.90;;;;;;5054316;28;20208;-62
2023/03/16 03:52:39;;;;;;;0.50;0.50;;;2.80;99.90;;;;;;5053499;28;20683;-61
2023/03/16 03:55:07;;;;;;;0.70;0.70;;;2.80;99.90;;;;;;5052876;28;20210;-61
2023/03/16 03:57:35;;;;;;;0.70;0.70;;;2.80;99.90;;;;;;5053807;28;20215;-60
2023/03/16 04:00:06;;;;;;;0.57;0.57;;;2.80;99.90;;;;;;5053904;28;20215;-61
2023/03/16 04:02:33;;;;;;;0.98;0.90;;;2.90;99.90;;;;;;5053698;28;20969;-62
2023/03/16 04:05:00;;;;;;;0.70;0.70;;;2.80;99.90;;;;;;5053544;28;20208;-62
2023/03/16 04:07:27;;;;;;;0.60;0.60;;;2.80;99.90;;;;;;5053309;28;20231;-61
2023/03/16 04:09:53;;;;;;;0.60;0.60;;;2.90;99.90;;;;;;5054014;28;20295;-61
2023/03/16 04:12:20;;;;;;;0.60;0.60;;;2.90;99.90;;;;;;5054207;28;20313;-61
2023/03/16 04:14:48;;;;;;;0.80;0.80;;;2.90;99.90;;;;;;5055556;28;20306;-61
2023/03/16 04:17:15;;;;;;;0.70;0.70;;;2.90;99.90;;;;;;5059337;28;20291;-59
2023/03/16 04:19:43;;;;;;;0.52;0.52;;;2.90;99.90;;;;;;5055669;28;20239;-60
2023/03/16 04:22:11;;;;;;;0.70;0.70;;;2.90;99.90;;;;;;5056591;28;20204;-60
2023/03/16 04:24:38;;;;;;;0.63;0.63;;;3.00;99.90;;;;;;5056412;28;20208;-61
2023/03/16 04:27:05;;;;;;;0.55;0.55;;;3.00;99.90;;;;;;5060709;28;20238;-61
2023/03/16 04:29:32;;;;;;;0.63;0.63;;;3.00;99.90;;;;;;5055662;28;20692;-62
2023/03/16 04:32:00;;;;;;;0.60;0.60;;;3.00;99.90;;;;;;5054954;28;20196;-61
2023/03/16 04:34:27;;;;;;;0.50;0.50;;;3.00;99.90;;;;;;5069720;28;20204;-61
2023/03/16 04:36:54;;;;;;;0.60;0.60;;;3.00;99.90;;;;;;5072194;28;20227;-61
2023/03/16 04:39:21;;;;;;;0.60;0.60;;;3.00;99.90;;;;;;5065579;28;20722;-61
2023/03/16 04:41:48;;;;;;;0.80;0.80;;;3.00;99.90;;;;;;5054031;28;20208;-61
2023/03/16 04:44:16;;;;;;;0.75;0.60;;;2.90;99.90;;;;;;5053995;28;20234;-60
2023/03/16 04:46:43;;;;;;;0.43;0.43;;;2.90;99.90;;;;;;5053681;28;20220;-60
2023/03/16 04:49:11;;;;;;;0.77;0.77;;;3.00;99.90;;;;;;5053664;28;20556;-61
2023/03/16 04:51:39;;;;;;;0.70;0.70;;;3.00;99.90;;;;;;5053915;28;20208;-61
2023/03/16 04:54:07;;;;;;;0.73;0.70;;;3.00;99.90;;;;;;5052293;28;20223;-62
2023/03/16 04:56:34;;;;;;;0.50;0.50;;;3.00;99.90;;;;;;5053261;28;20220;-61
2023/03/16 04:59:01;;;;;;;0.70;0.70;;;3.00;99.90;;;;;;5053218;28;20292;-62
2023/03/16 05:01:28;;;;;;;0.60;0.60;;;3.10;99.90;;;;;;5054694;28;20214;-63
2023/03/16 05:03:54;;;;;;;0.60;0.60;;;2.90;99.90;;;;;;5063483;28;20215;-62
2023/03/16 05:06:23;;;;;;;0.70;0.70;;;2.90;99.90;;;;;;5065612;28;20295;-62
2023/03/16 05:08:49;;;;;;;0.70;0.70;;;2.90;99.90;;;;;;5065569;28;20273;-61
2023/03/16 05:11:16;;;;;;;0.70;0.70;;;2.90;99.90;;;;;;5064524;28;20574;-62
2023/03/16 05:13:43;;;;;;;0.70;0.70;;;2.90;99.90;;;;;;5055826;28;20219;-60
2023/03/16 05:16:10;;;;;;;0.50;0.50;;;2.90;99.90;;;;;;5052179;28;20319;-60
2023/03/16 05:18:37;;;;;;;0.60;0.60;;;2.80;99.90;;;;;;5052561;28;20224;-61
2023/03/16 05:21:04;;;;;;;0.63;0.63;;;2.80;99.90;;;;;;5052419;28;20853;-62
2023/03/16 05:23:32;;;;;;;0.90;0.90;;;2.80;99.90;;;;;;5047812;28;20294;-61
2023/03/16 05:25:59;;;;;;;0.77;0.77;;;2.80;99.90;;;;;;5051535;28;20232;-61
2023/03/16 05:28:27;;;;;;;0.80;0.80;;;2.80;99.90;;;;;;5052312;28;20227;-62
2023/03/16 05:30:55;;;;;;;0.70;0.70;;;2.80;99.90;;;;;;5051307;28;20204;-61
2023/03/16 05:33:22;;;;;;;1.65;0.85;;;2.80;99.90;;;;;;5050734;28;20219;-62
2023/03/16 05:35:49;;;;;;;0.73;0.73;;;2.80;99.90;;;;;;5050097;28;20668;-61
2023/03/16 05:38:17;;;;;;;0.90;0.90;;;2.80;99.90;;;;;;5052489;28;20200;-62
2023/03/16 05:40:51;;;;;;;1.00;0.95;;;2.80;99.90;;;;;;5051748;28;20203;-62
2023/03/16 05:43:19;;;;;;;0.65;0.65;;;2.80;99.90;;;;;;5051778;28;20207;-61
2023/03/16 05:45:46;;;;;;;0.80;0.80;;;2.80;99.90;;;;;;5031843;28;20239;-61
2023/03/16 05:48:13;;;;;;;0.90;0.90;;;2.80;99.90;;;;;;5031935;28;20228;-63
2023/03/16 05:50:40;;;;;;;0.90;0.90;;;2.90;99.90;;;;;;5031809;28;20667;-62
2023/03/16 05:53:07;;;;;;;1.25;0.90;;;2.90;99.90;;;;;;5031834;28;20633;-60
2023/03/16 05:55:34;;;;;;;1.10;1.00;;;3.00;99.90;;;;;;5030666;28;20315;-61
2023/03/16 05:58:03;;;;;;;1.02;1.02;;;3.00;99.90;;;;;;5033431;28;20201;-60
2023/03/16 06:00:30;;;;;;;0.98;0.98;;;3.00;99.90;;;;;;5031401;28;20662;-60
2023/03/16 06:02:57;;;;;;;0.80;0.80;;;3.00;99.90;;;;;;5030848;28;20208;-61
2023/03/16 06:05:24;;;;;;;0.80;0.80;;;3.10;99.90;;;;;;5030728;28;20260;-61
2023/03/16 06:07:51;;;;;;;0.70;0.70;;;3.10;99.90;;;;;;5031920;28;20897;-61
2023/03/16 06:10:19;;;;;;;0.77;0.77;;;3.10;99.90;;;;;;5031604;28;20243;-61
2023/03/16 06:12:46;;;;;;;0.80;0.80;;;3.10;99.90;;;;;;5047167;28;20290;-60
2023/03/16 06:15:14;;;;;;;0.70;0.70;;;3.20;99.90;;;;;;5044671;28;20674;-62
2023/03/16 06:17:41;;;;;;;0.80;0.80;;;3.20;99.90;;;;;;5051509;28;20211;-60
2023/03/16 06:20:12;;;;;;;0.70;0.70;;;3.20;99.90;;;;;;5051432;28;20204;-62
2023/03/16 06:22:40;;;;;;;1.00;1.00;;;3.20;99.90;;;;;;5051182;28;20200;-63
2023/03/16 06:25:09;;;;;;;0.70;0.70;;;3.30;99.90;;;;;;5050758;28;20204;-61
2023/03/16 06:27:36;;;;;;;0.80;0.80;;;3.30;99.90;;;;;;5051472;28;20216;-61
2023/03/16 06:30:05;;;;;;;0.93;0.90;;;3.40;99.90;;;;;;5051454;28;20947;-62
2023/03/16 06:32:33;;;;;;;0.82;0.82;;;3.40;99.90;;;;;;5050215;28;20204;-62
2023/03/16 06:35:01;;;;;;;1.25;0.80;;;3.50;99.90;;;;;;5048598;28;20204;-59
2023/03/16 06:37:28;;;;;;;0.90;0.90;;;3.50;99.90;;;;;;5050035;28;20212;-63
2023/03/16 06:39:55;;;;;;;0.80;0.80;;;3.60;99.90;;;;;;5050732;28;20585;-60
2023/03/16 06:42:22;;;;;;;0.77;0.77;;;3.70;99.90;;;;;;5050681;28;20210;-60
2023/03/16 06:44:50;;;;;;;0.77;0.77;;;3.70;99.90;;;;;;5049903;28;20254;-60
2023/03/16 06:47:16;;;;;;;0.90;0.90;;;3.80;99.90;;;;;;5050900;28;20597;-61
2023/03/16 06:49:45;;;;;;;0.70;0.70;;;3.90;99.90;;;;;;5051098;28;20203;-61
2023/03/16 06:52:13;;;;;;;0.80;0.80;;;4.00;99.90;;;;;;5051462;28;20210;-65
2023/03/16 06:54:41;;;;;;;0.90;0.90;;;4.10;99.90;;;;;;5051827;28;20682;-61
2023/03/16 06:57:08;;;;;;;0.80;0.80;;;4.20;99.90;;;;;;5052004;28;20230;-60
2023/03/16 06:59:35;;;;;;;1.10;1.10;;;4.30;99.90;;;;;;5051330;28;20208;-62
2023/03/16 07:02:02;;;;;;;1.55;1.45;;;4.40;99.90;;;;;;5050838;28;20673;-62
2023/03/16 07:04:29;;;;;;;1.48;1.38;;;4.40;99.90;;;;;;5050510;28;20212;-61
2023/03/16 07:06:57;;;;;;;1.58;1.50;;;4.20;99.90;;;;;;5051012;28;20687;-60
2023/03/16 07:09:24;;;;;;;1.50;1.40;;;4.10;99.90;;;;;;5051006;28;20230;-62
2023/03/16 07:11:51;;;;;;;2.13;2.03;;;4.10;99.90;;;;;;5050773;28;20208;-61
2023/03/16 07:14:18;;;;;;;1.20;1.20;;;4.10;99.90;;;;;;5049964;28;20204;-61
2023/03/16 07:16:45;;;;;;;1.55;1.50;;;4.10;99.90;;;;;;5051006;28;20227;-61
2023/03/16 07:19:12;;;;;;;1.60;1.50;;;4.10;99.90;;;;;;5051223;28;20196;-62
2023/03/16 07:21:40;;;;;;;1.48;1.38;;;4.20;99.90;;;;;;5051931;28;20322;-61
2023/03/16 07:24:10;;;;;;;1.33;1.30;;;4.20;99.90;;;;;;5056421;28;20250;-61
2023/03/16 07:26:37;;;;;;;1.70;1.60;;;4.10;99.90;;;;;;5056897;28;20224;-62
2023/03/16 07:29:05;;;;;;;1.60;1.52;;;4.10;99.90;;;;;;5057307;28;20224;-61
2023/03/16 07:31:32;;;;;;;1.85;1.75;;;4.30;99.90;;;;;;5058694;28;20232;-62
2023/03/16 07:33:59;;;;;;;1.60;1.50;;;4.30;99.90;;;;;;5059435;28;20211;-61
2023/03/16 07:36:26;;;;;;;1.65;1.55;;;4.40;99.90;;;;;;5059492;28;20601;-62
2023/03/16 07:38:53;;;;;;;1.65;1.55;;;4.50;99.90;;;;;;5054850;28;20287;-63
2023/03/16 07:41:21;;;;;;;1.60;1.50;;;4.60;99.90;;;;;;5053307;28;20206;-62
2023/03/16 07:43:48;;;;;;;1.63;1.52;;;4.70;99.90;;;;;;5052027;28;20238;-60
2023/03/16 07:46:15;;;;;;;1.48;1.38;;;4.80;99.90;;;;;;5052630;28;20234;-61
2023/03/16 07:48:43;;;;;;;1.60;1.50;;;4.90;99.90;;;;;;5050937;28;20227;-62
2023/03/16 07:51:11;;;;;;;1.70;1.60;;;5.00;99.90;;;;;;5050579;28;20215;-62
2023/03/16 07:53:38;;;;;;;2.00;1.90;;;5.00;99.90;;;;;;5050255;28;20717;-61
2023/03/16 07:56:06;;;;;;;1.70;1.60;;;5.00;99.90;;;;;;5050126;28;20277;-62
2023/03/16 07:58:34;;;;;;;1.70;1.60;;;5.10;99.90;;;;;;5050498;28;20230;-62
2023/03/16 08:01:01;;;;;;;1.33;1.27;;;5.20;99.90;;;;;;5050864;28;20215;-62
2023/03/16 08:03:30;;;;;;;1.48;1.35;;;5.30;99.90;;;;;;5051161;28;20199;-62
2023/03/16 08:05:57;;;;;;;1.50;1.40;;;5.40;99.90;;;;;;5050822;28;20616;-63
2023/03/16 08:08:24;;;;;;;1.40;1.30;;;5.30;99.90;;;;;;5051728;28;20865;-61
2023/03/16 08:10:52;;;;;;;1.15;1.15;;;5.40;99.90;;;;;;5051423;28;20298;-62
2023/03/16 08:13:21;;;;;;;1.58;1.48;;;5.60;99.90;;;;;;5051497;28;20216;-60
2023/03/16 08:15:54;;;;;;;1.60;1.50;;;5.70;99.90;;;;;;5052467;28;20224;-62
2023/03/16 08:18:22;;;;;;;1.45;1.35;;;5.80;99.90;;;;;;5053946;28;20295;-60
2023/03/16 08:20:49;;;;;;;1.25;1.25;;;6.00;99.90;;;;;;5052097;28;20273;-62
2023/03/16 08:23:16;;;;;;;1.48;1.38;;;6.20;99.90;;;;;;5050375;28;20304;-61
2023/03/16 08:25:43;;;;;;;1.20;1.20;;;6.40;99.90;;;;;;5052230;28;20224;-62
2023/03/16 08:28:11;;;;;;;1.20;1.20;;;6.50;99.90;;;;;;5054015;28;20238;-63
2023/03/16 08:30:45;;;;;;;1.10;1.10;;;6.60;99.90;;;;;;5053795;28;20222;-62
2023/03/16 08:33:14;;;;;;;1.00;1.00;;;6.80;99.90;;;;;;5053991;28;20720;-62
2023/03/16 08:35:42;;;;;;;1.33;1.20;;;6.90;99.90;;;;;;5053138;28;20230;-63
2023/03/16 08:38:09;;;;;;;1.10;1.10;;;7.00;99.90;;;;;;5054911;28;20578;-64
2023/03/16 08:40:36;;;;;;;1.10;1.10;;;7.10;99.90;;;;;;5056214;28;20293;-61
2023/03/16 08:43:03;;;;;;;1.10;1.10;;;7.20;99.90;;;;;;5054155;28;20212;-63
2023/03/16 08:45:30;;;;;;;1.10;1.10;;;7.20;99.90;;;;;;5055251;28;20224;-62
2023/03/16 08:47:57;;;;;;;0.98;0.98;;;7.40;99.90;;;;;;5054799;28;20208;-62
2023/03/16 08:50:26;;;;;;;1.15;1.15;;;7.50;99.90;;;;;;5053564;28;20231;-63
2023/03/16 08:52:53;;;;;;;1.20;1.20;;;7.50;99.90;;;;;;5053434;28;20913;-63
2023/03/16 08:55:20;;;;;;;1.07;1.07;;;7.60;99.90;;;;;;5052540;28;20224;-61
2023/03/16 08:57:47;;;;;;;1.27;1.20;;;7.50;99.90;;;;;;5053572;28;20295;-62
2023/03/16 09:00:16;;;;;;;1.33;1.23;;;7.60;99.90;;;;;;5053189;28;20218;-62
2023/03/16 09:02:44;;;;;;;1.30;1.30;;;7.70;99.90;;;;;;5052924;28;20698;-62
2023/03/16 09:05:13;;;;;;;1.33;1.25;;;7.60;99.90;;;;;;5052295;28;20200;-64
2023/03/16 09:07:42;;;;;;;1.20;1.20;;;7.70;99.90;;;;;;5053236;28;20204;-63
2023/03/16 09:10:14;;;;;;;1.20;1.20;;;7.90;99.90;;;;;;5052673;28;20231;-62
2023/03/16 09:12:42;;;;;;;1.10;1.10;;;8.00;99.90;;;;;;5052789;28;20207;-63
2023/03/16 09:15:11;;;;;;;1.45;1.35;;;8.10;99.90;;;;;;5052543;28;20192;-62
2023/03/16 09:17:38;;;;;;;1.38;1.35;;;8.40;99.90;;;;;;5051257;28;20211;-63
2023/03/16 09:20:08;;;;;;;1.83;1.30;;;8.60;99.90;;;;;;5052934;28;20286;-63
2023/03/16 09:22:35;;;;;;;1.10;1.10;;;8.70;99.90;;;;;;5052811;28;20222;-62
2023/03/16 09:25:04;;;;;;;1.40;1.30;;;8.90;99.90;;;;;;5052512;28;20721;-63
2023/03/16 09:27:31;;;;;;;1.10;1.10;;;9.00;99.90;;;;;;5052737;28;20291;-61
2023/03/16 09:29:59;;;;;;;1.27;1.17;;;9.20;99.90;;;;;;5053255;28;20230;-63
2023/03/16 09:32:27;;;;;;;1.23;1.10;;;9.20;99.90;;;;;;5052080;28;20208;-62
2023/03/16 09:34:53;;;;;;;1.20;1.20;;;9.20;99.90;;;;;;5051662;28;20624;-63
2023/03/16 09:37:20;;;;;;;1.20;1.20;;;9.10;99.90;;;;;;5052578;28;20207;-63
2023/03/16 09:39:47;;;;;;;1.40;1.30;;;9.00;99.90;;;;;;5053210;28;20210;-62
2023/03/16 09:42:20;;;;;;;1.30;1.20;;;9.20;99.90;;;;;;5052876;28;20210;-62
2023/03/16 09:44:59;;;;;;;1.30;1.30;;;9.40;99.90;;;;;;5047991;28;20200;-62
2023/03/16 09:47:29;;;;;;;1.00;1.00;;;9.60;99.90;;;;;;5047358;28;20216;-62
2023/03/16 09:50:00;;;;;;;1.20;1.20;;;9.60;99.90;;;;;;5051417;28;20254;-62
2023/03/16 09:52:35;;;;;;;1.02;1.02;;;9.70;99.90;;;;;;5050463;28;20211;-63
2023/03/16 09:55:06;;;;;;;1.10;1.10;;;9.90;99.90;;;;;;5048830;28;20214;-62
2023/03/16 09:57:39;;;;;;;1.27;1.20;;;10.00;99.90;;;;;;5039889;28;20698;-62
2023/03/16 10:00:16;;;;;;;1.30;1.30;;;10.20;99.90;;;;;;5029821;28;20545;-62
2023/03/16 10:03:20;;;;;;;1.50;1.48;;;10.20;99.90;;;;;;5035930;28;20258;-62
2023/03/16 10:05:53;;;;;;;1.20;1.20;;;10.30;99.90;;;;;;5002612;28;20338;-62
2023/03/16 10:08:24;;;;;;;1.40;1.30;;;10.20;99.90;;;;;;5037321;28;20254;-62
2023/03/16 10:11:13;;;;;;;1.60;1.50;;;10.20;99.90;;;;;;5038090;28;20219;-61
2023/03/16 10:13:47;;;;;;;1.10;1.10;;;10.20;99.90;;;;;;5038776;28;20218;-61
2023/03/16 10:16:18;;;;;;;1.30;1.30;;;10.40;99.90;;;;;;5044439;28;20224;-63
2023/03/16 10:18:48;;;;;;;1.50;1.45;;;10.40;99.90;;;;;;5035508;28;20287;-62
2023/03/16 10:21:18;;;;;;;1.30;1.30;;;10.50;99.90;;;;;;5041050;28;20204;-61
2023/03/16 10:23:47;;;;;;;1.40;1.40;;;10.50;99.90;;;;;;5040399;28;20211;-62
2023/03/16 10:26:17;;;;;;;1.70;1.60;;;10.50;99.90;;;;;;5044626;28;20307;-63
2023/03/16 10:28:46;;;;;;;1.23;1.23;;;10.60;99.90;;;;;;5037557;28;20216;-62
2023/03/16 10:31:16;;;;;;;1.33;1.33;;;10.80;99.90;;;;;;5047328;28;20219;-62
2023/03/16 10:33:44;;;;;;;1.38;1.35;;;10.80;99.90;;;;;;5040551;28;20207;-62
2023/03/16 10:36:15;;;;;;;1.13;1.13;;;10.60;99.90;;;;;;5044759;28;20223;-61
2023/03/16 10:38:45;;;;;;;1.08;1.08;;;10.70;99.90;;;;;;5037877;28;20207;-61
2023/03/16 10:41:26;;;;;;;1.10;1.10;;;10.90;99.90;;;;;;5047028;28;20679;-63
2023/03/16 10:43:57;;;;;;;1.13;1.13;;;11.00;99.90;;;;;;5036322;28;20200;-62
2023/03/16 10:46:26;;;;;;;1.10;1.10;;;11.00;99.90;;;;;;5037393;28;20234;-64
2023/03/16 10:48:58;;;;;;;1.83;1.15;;;11.20;99.90;;;;;;5030630;28;20734;-62
2023/03/16 10:51:28;;;;;;;1.13;1.13;;;11.30;99.90;;;;;;5034884;28;20265;-63
2023/03/16 10:54:09;;;;;;;1.25;1.17;;;11.30;99.90;;;;;;5041475;28;20274;-63
2023/03/16 10:56:37;;;;;;;1.05;1.05;;;11.40;99.90;;;;;;5036115;28;20235;-63
2023/03/16 10:59:16;;;;;;;1.08;1.08;;;11.40;99.90;;;;;;5038688;28;20197;-62
2023/03/16 11:01:47;;;;;;;1.10;1.10;;;11.60;99.90;;;;;;5049691;28;20290;-62
2023/03/16 11:04:16;;;;;;;1.10;1.10;;;11.70;99.90;;;;;;5055738;28;20204;-62
2023/03/16 11:06:52;;;;;;;1.10;1.10;;;11.90;99.90;;;;;;5048061;28;20244;-64
2023/03/16 11:09:23;;;;;;;1.13;1.10;;;11.80;99.90;;;;;;5061852;28;20717;-67
2023/03/16 11:11:50;;;;;;;1.10;1.10;;;11.90;99.90;;;;;;5058789;28;20758;-61
2023/03/16 11:14:23;;;;;;;1.17;1.10;;;12.00;99.90;;;;;;5044908;28;20218;-62
2023/03/16 11:16:55;;;;;;;1.33;1.30;;;12.00;99.90;;;;;;5045007;28;20228;-62
2023/03/16 11:19:28;;;;;;;1.13;1.13;;;12.00;99.90;;;;;;5039346;28;20205;-61
2023/03/16 11:22:00;;;;;;;0.98;0.98;;;11.90;99.90;;;;;;5039117;28;20208;-62
2023/03/16 11:24:34;;;;;;;1.20;1.20;;;11.90;99.90;;;;;;5041502;28;20287;-63
2023/03/16 11:27:07;;;;;;;1.00;1.00;;;11.90;99.90;;;;;;5043646;28;20223;-62
2023/03/16 11:29:46;;;;;;;1.00;1.00;;;11.80;99.90;;;;;;5044486;28;20216;-62
2023/03/16 11:32:19;;;;;;;0.90;0.90;;;11.90;99.90;;;;;;5047490;28;20677;-61
2023/03/16 11:34:47;;;;;;;1.10;1.10;;;12.00;99.90;;;;;;5054246;28;20264;-61
2023/03/16 11:37:24;;;;;;;1.10;1.10;;;12.30;99.90;;;;;;5058553;28;20220;-62
2023/03/16 11:40:08;;;;;;;1.15;1.15;;;12.40;99.90;;;;;;5067059;28;20198;-63
2023/03/16 11:42:38;;;;;;;1.00;1.00;;;12.40;99.90;;;;;;5049006;28;20210;-62
2023/03/16 11:45:20;;;;;;;1.10;1.10;;;12.50;99.90;;;;;;5041383;28;20270;-62
2023/03/16 11:48:16;;;;;;;1.23;1.20;;;12.60;99.90;;;;;;5035062;28;20240;-62
2023/03/16 11:50:55;;;;;;;1.17;1.17;;;12.60;99.90;;;;;;5040923;28;20234;-62
2023/03/16 11:53:35;;;;;;;1.17;1.10;;;12.40;99.90;;;;;;5041518;28;20762;-63
2023/03/16 11:56:11;;;;;;;1.13;1.13;;;12.40;99.90;;;;;;5049360;28;20215;-63
2023/03/16 11:58:56;;;;;;;1.00;1.00;;;12.60;99.90;;;;;;5043606;28;20203;-64
2023/03/16 12:01:31;;;;;;;1.00;1.00;;;12.80;99.90;;;;;;5046597;28;20757;-63
2023/03/16 12:04:17;;;;;;;1.10;1.10;;;12.90;99.90;;;;;;5054059;28;20299;-63
2023/03/16 12:07:00;;;;;;;1.08;1.08;;;12.90;99.90;;;;;;5061380;28;20232;-62
2023/03/16 12:09:50;;;;;;;1.20;1.20;;;13.00;99.90;;;;;;5060890;28;20252;-62
2023/03/16 12:12:36;;;;;;;1.27;1.17;;;13.10;99.90;;;;;;5053955;28;20584;-61
2023/03/16 12:15:23;;;;;;;1.30;1.20;;;13.30;99.90;;;;;;5044578;28;20337;-61
2023/03/16 12:17:55;;;;;;;1.20;1.15;;;13.30;99.90;;;;;;5039516;28;20254;-63
2023/03/16 12:20:25;;;;;;;1.00;1.00;;;13.40;99.90;;;;;;5049223;28;20199;-62
2023/03/16 12:22:55;;;;;;;1.10;1.10;;;13.50;99.90;;;;;;5048744;28;20228;-63
2023/03/16 12:25:26;;;;;;;1.15;1.15;;;13.30;99.90;;;;;;5047372;28;21005;-63
2023/03/16 12:27:57;;;;;;;1.05;1.05;;;13.30;99.90;;;;;;5039298;28;20202;-61
2023/03/16 12:30:35;;;;;;;1.20;1.20;;;13.30;99.90;;;;;;5049134;28;20220;-61
2023/03/16 12:33:08;;;;;;;1.10;1.10;;;13.40;99.90;;;;;;5046269;28;20699;-60
2023/03/16 12:35:43;;;;;;;0.90;0.90;;;13.50;99.90;;;;;;5047600;28;20318;-63
2023/03/16 12:38:36;;;;;;;1.00;1.00;;;13.50;99.90;;;;;;5049743;28;20677;-62
2023/03/16 12:41:15;;;;;;;1.08;1.08;;;13.60;99.90;;;;;;5047764;28;20203;-63
2023/03/16 12:43:52;;;;;;;1.10;1.10;;;13.50;99.90;;;;;;5035147;28;20677;-61
2023/03/16 12:46:29;;;;;;;1.10;1.10;;;13.40;99.90;;;;;;5049601;28;20238;-64
2023/03/16 12:49:01;;;;;;;1.10;1.10;;;13.50;99.90;;;;;;5048255;28;20670;-63
2023/03/16 12:51:36;;;;;;;0.90;0.90;;;13.50;99.90;;;;;;5047360;28;20213;-64
2023/03/16 12:54:04;;;;;;;1.20;1.20;;;13.60;99.90;;;;;;5049316;28;20680;-63
2023/03/16 12:56:34;;;;;;;1.02;1.02;;;13.80;99.90;;;;;;5049653;28;20230;-63
2023/03/16 12:59:04;;;;;;;1.00;1.00;;;13.90;99.90;;;;;;5050297;28;20235;-64
2023/03/16 13:01:38;;;;;;;0.97;0.97;;;13.90;99.90;;;;;;5050099;28;20296;-62
2023/03/16 13:04:12;;;;;;;1.00;1.00;;;14.20;99.90;;;;;;5047955;28;20200;-63
2023/03/16 13:06:44;;;;;;;0.75;0.75;;;14.10;99.90;;;;;;5050662;28;20234;-64
2023/03/16 13:09:12;;;;;;;1.00;1.00;;;14.10;99.90;;;;;;5051087;28;20567;-64